createdAt,value
2022-10-05T00:01:35.018Z,17.90
2022-10-05T00:04:15.795Z,17.90
2022-10-05T00:06:44.782Z,17.90
2022-10-05T00:09:18.585Z,17.80
2022-10-05T00:11:46.461Z,17.80
2022-10-05T00:14:30.609Z,17.80
2022-10-05T00:16:58.757Z,17.80
2022-10-05T00:19:34.201Z,17.80
2022-10-05T00:22:13.787Z,17.90
2022-10-05T00:24:41.446Z,17.90
2022-10-05T00:27:21.471Z,17.90
2022-10-05T00:29:50.702Z,17.90
2022-10-05T00:32:18.537Z,17.90
2022-10-05T00:34:46.850Z,17.90
2022-10-05T00:37:14.627Z,17.90
2022-10-05T00:39:42.948Z,17.90
2022-10-05T00:42:29.059Z,17.90
2022-10-05T00:45:03.480Z,17.90
2022-10-05T00:47:46.607Z,17.90
2022-10-05T00:50:35.915Z,18.00
2022-10-05T00:53:34.881Z,18.00
2022-10-05T00:56:09.062Z,17.90
2022-10-05T00:59:00.640Z,17.90
2022-10-05T01:01:48.040Z,18.00
2022-10-05T01:04:27.489Z,17.90
2022-10-05T01:07:19.395Z,17.90
2022-10-05T01:09:55.422Z,17.90
2022-10-05T01:13:02.443Z,17.90
2022-10-05T01:15:36.915Z,17.90
2022-10-05T01:18:33.533Z,17.80
2022-10-05T01:21:14.230Z,17.90
2022-10-05T01:23:56.588Z,17.80
2022-10-05T01:27:02.381Z,17.80
2022-10-05T01:29:38.639Z,17.90
2022-10-05T01:32:26.042Z,17.80
2022-10-05T01:35:08.938Z,17.80
2022-10-05T01:38:15.761Z,17.80
2022-10-05T01:41:26.258Z,17.90
2022-10-05T01:44:11.536Z,17.90
2022-10-05T01:47:06.629Z,17.90
2022-10-05T01:49:40.679Z,17.90
2022-10-05T01:52:34.151Z,17.90
2022-10-05T01:55:40.395Z,17.90
2022-10-05T01:58:27.902Z,17.90
2022-10-05T02:01:06.550Z,17.90
2022-10-05T02:03:59.163Z,17.90
2022-10-05T02:06:32.515Z,17.90
2022-10-05T02:09:22.390Z,17.90
2022-10-05T02:11:59.930Z,17.90
2022-10-05T02:14:42.058Z,17.90
2022-10-05T02:17:17.933Z,17.90
2022-10-05T02:19:51.053Z,17.90
2022-10-05T02:22:28.488Z,18.00
2022-10-05T02:25:09.518Z,17.90
2022-10-05T02:27:41.200Z,18.00
2022-10-05T02:30:12.891Z,18.00
2022-10-05T02:33:10.471Z,17.90
2022-10-05T02:35:38.627Z,17.90
2022-10-05T02:38:26.918Z,17.90
2022-10-05T02:41:38.310Z,18.00
2022-10-05T02:44:24.811Z,18.00
2022-10-05T02:47:10.695Z,18.00
2022-10-05T02:49:55.917Z,18.00
2022-10-05T02:52:50.901Z,18.00
2022-10-05T02:55:45.602Z,18.00
2022-10-05T02:58:45.505Z,18.00
2022-10-05T03:01:20.034Z,18.00
2022-10-05T03:04:20.554Z,18.00
2022-10-05T03:07:13.574Z,18.00
2022-10-05T03:10:09.805Z,18.00
2022-10-05T03:12:58.889Z,18.00
2022-10-05T03:15:55.170Z,18.00
2022-10-05T03:18:53.983Z,18.10
2022-10-05T03:21:47.130Z,18.00
2022-10-05T03:24:42.460Z,18.00
2022-10-05T03:27:44.061Z,18.10
2022-10-05T03:30:21.969Z,18.10
2022-10-05T03:33:13.173Z,18.10
2022-10-05T03:35:56.507Z,18.10
2022-10-05T03:38:47.756Z,18.10
2022-10-05T03:41:30.477Z,18.10
2022-10-05T03:44:23.185Z,18.10
2022-10-05T03:47:21.086Z,18.10
2022-10-05T03:49:52.208Z,18.10
2022-10-05T03:52:41.490Z,18.00
2022-10-05T03:55:23.961Z,18.10
2022-10-05T03:57:56.915Z,18.00
2022-10-05T04:00:25.605Z,18.00
2022-10-05T04:03:01.967Z,18.00
2022-10-05T04:05:43.493Z,18.10
2022-10-05T04:08:40.599Z,18.10
2022-10-05T04:11:16.861Z,18.10
2022-10-05T04:13:54.284Z,18.10
2022-10-05T04:16:45.764Z,18.10
2022-10-05T04:19:34.358Z,18.10
2022-10-05T04:22:20.709Z,18.10
2022-10-05T04:25:14.372Z,18.10
2022-10-05T04:27:47.242Z,18.10
2022-10-05T04:30:24.475Z,18.00
2022-10-05T04:33:00.544Z,18.00
2022-10-05T04:35:47.476Z,18.00
2022-10-05T04:38:40.016Z,18.00
2022-10-05T04:41:30.597Z,18.10
2022-10-05T04:44:37.059Z,18.00
2022-10-05T04:47:17.713Z,18.00
2022-10-05T04:50:10.639Z,18.00
2022-10-05T04:53:05.053Z,18.00
2022-10-05T04:56:02.616Z,18.00
2022-10-05T04:58:49.758Z,18.00
2022-10-05T05:01:26.657Z,18.00
2022-10-05T05:03:54.125Z,18.00
2022-10-05T05:07:00.431Z,18.00
2022-10-05T05:10:06.815Z,18.10
2022-10-05T05:12:55.211Z,18.10
2022-10-05T05:15:58.374Z,18.00
2022-10-05T05:18:47.998Z,18.00
2022-10-05T05:21:38.033Z,18.00
2022-10-05T05:24:24.134Z,18.00
2022-10-05T05:27:29.632Z,18.00
2022-10-05T05:30:22.404Z,18.10
2022-10-05T05:33:15.379Z,18.00
2022-10-05T05:35:57.830Z,18.00
2022-10-05T05:38:44.660Z,18.10
2022-10-05T05:41:31.055Z,18.00
2022-10-05T05:44:06.330Z,18.10
2022-10-05T05:47:03.085Z,18.10
2022-10-05T05:50:15.333Z,18.10
2022-10-05T05:52:49.219Z,18.10
2022-10-05T05:55:49.562Z,18.10
2022-10-05T05:58:16.974Z,18.10
2022-10-05T06:00:58.531Z,18.10
2022-10-05T06:03:43.795Z,18.10
2022-10-05T06:06:17.590Z,18.10
2022-10-05T06:08:58.385Z,18.10
2022-10-05T06:11:54.510Z,18.10
2022-10-05T06:14:52.210Z,18.10
2022-10-05T06:17:48.655Z,18.10
2022-10-05T06:20:30.778Z,18.00
2022-10-05T06:23:04.769Z,18.00
2022-10-05T06:25:53.247Z,18.10
2022-10-05T06:28:21.142Z,18.00
2022-10-05T06:31:01.794Z,18.10
2022-10-05T06:33:54.506Z,18.10
2022-10-05T06:36:35.113Z,18.10
2022-10-05T06:39:41.394Z,18.10
2022-10-05T06:42:15.337Z,18.10
2022-10-05T06:45:30.806Z,18.00
2022-10-05T06:48:28.697Z,18.10
2022-10-05T06:51:18.666Z,18.10
2022-10-05T06:54:15.983Z,18.10
2022-10-05T06:57:08.824Z,18.10
2022-10-05T06:59:45.398Z,18.10
2022-10-05T07:02:19.222Z,18.10
2022-10-05T07:04:49.885Z,18.10
2022-10-05T07:07:26.274Z,18.10
2022-10-05T07:10:24.244Z,18.20
2022-10-05T07:13:28.126Z,18.20
2022-10-05T07:16:12.963Z,18.20
2022-10-05T07:18:49.611Z,18.20
2022-10-05T07:21:27.271Z,18.20
2022-10-05T07:24:22.586Z,18.30
2022-10-05T07:27:12.777Z,18.30
2022-10-05T07:29:56.499Z,18.30
2022-10-05T07:32:29.784Z,18.40
2022-10-05T07:35:09.971Z,18.40
2022-10-05T07:37:57.754Z,18.40
2022-10-05T07:40:41.916Z,18.40
2022-10-05T07:44:00.562Z,18.40
2022-10-05T07:46:37.382Z,18.50
2022-10-05T07:49:12.249Z,18.50
2022-10-05T07:51:49.679Z,18.50
2022-10-05T07:54:36.035Z,18.60
2022-10-05T07:57:18.753Z,18.60
2022-10-05T07:59:56.751Z,18.60
2022-10-05T08:02:44.564Z,18.70
2022-10-05T08:05:31.416Z,18.70
2022-10-05T08:08:01.883Z,18.80
2022-10-05T08:10:41.777Z,18.80
2022-10-05T08:13:15.353Z,18.90
2022-10-05T08:15:48.419Z,18.90
2022-10-05T08:18:40.378Z,18.90
2022-10-05T08:21:12.103Z,19.00
2022-10-05T08:23:58.305Z,19.00
2022-10-05T08:26:46.921Z,19.10
2022-10-05T08:29:36.732Z,19.10
2022-10-05T08:32:12.634Z,19.10
2022-10-05T08:34:47.812Z,19.10
2022-10-05T08:37:28.963Z,19.20
2022-10-05T08:40:33.785Z,19.20
2022-10-05T08:43:16.639Z,19.20
2022-10-05T08:46:03.041Z,19.30
2022-10-05T08:48:48.278Z,19.30
2022-10-05T08:51:47.083Z,19.30
2022-10-05T08:54:36.856Z,19.40
2022-10-05T08:57:32.090Z,19.40
2022-10-05T09:00:05.320Z,19.50
2022-10-05T09:02:53.944Z,19.50
2022-10-05T09:05:42.048Z,19.60
2022-10-05T09:08:52.681Z,19.60
2022-10-05T09:11:31.803Z,19.70
2022-10-05T09:14:28.232Z,19.70
2022-10-05T09:17:01.504Z,19.80
2022-10-05T09:20:00.040Z,19.80
2022-10-05T09:23:08.037Z,19.90
2022-10-05T09:25:43.800Z,20.00
2022-10-05T09:28:37.753Z,20.10
2022-10-05T09:32:00.703Z,20.20
2022-10-05T09:34:55.780Z,20.20
2022-10-05T09:38:00.987Z,20.20
2022-10-05T09:40:44.645Z,20.30
2022-10-05T09:43:44.315Z,20.40
2022-10-05T09:46:14.634Z,20.40
2022-10-05T09:48:55.489Z,20.40
2022-10-05T09:51:41.440Z,20.50
2022-10-05T09:54:29.615Z,20.50
2022-10-05T09:57:18.742Z,20.50
2022-10-05T10:00:09.115Z,20.60
2022-10-05T10:02:58.338Z,20.60
2022-10-05T10:05:50.168Z,20.70
2022-10-05T10:08:20.808Z,20.70
2022-10-05T10:11:10.267Z,20.80
2022-10-05T10:14:04.893Z,20.90
2022-10-05T10:16:53.639Z,20.90
2022-10-05T10:19:51.350Z,21.00
2022-10-05T10:22:43.470Z,21.10
2022-10-05T10:25:52.691Z,21.10
2022-10-05T10:29:09.080Z,21.20
2022-10-05T10:32:15.777Z,21.10
2022-10-05T10:35:04.412Z,21.10
2022-10-05T10:37:57.795Z,21.10
2022-10-05T10:40:44.557Z,21.10
2022-10-05T10:43:29.470Z,21.00
2022-10-05T10:46:07.373Z,21.00
2022-10-05T10:48:38.114Z,20.90
2022-10-05T10:51:19.330Z,20.90
2022-10-05T10:54:03.769Z,20.90
2022-10-05T10:56:56.356Z,20.80
2022-10-05T10:59:55.080Z,20.70
2022-10-05T11:02:37.317Z,20.60
2022-10-05T11:05:16.796Z,20.60
2022-10-05T11:07:59.147Z,20.70
2022-10-05T11:11:04.562Z,20.80
2022-10-05T11:14:02.714Z,20.90
2022-10-05T11:16:39.149Z,20.90
2022-10-05T11:19:15.483Z,21.00
2022-10-05T11:22:07.440Z,21.20
2022-10-05T11:24:43.991Z,21.20
2022-10-05T11:27:17.126Z,21.20
2022-10-05T11:30:11.416Z,21.20
2022-10-05T11:33:00.536Z,21.20
2022-10-05T11:35:34.214Z,21.20
2022-10-05T11:38:20.618Z,21.20
2022-10-05T11:41:15.192Z,21.10
2022-10-05T11:44:24.981Z,21.10
2022-10-05T11:47:12.102Z,21.10
2022-10-05T11:49:53.650Z,21.00
2022-10-05T11:52:38.549Z,20.90
2022-10-05T11:55:20.863Z,20.90
2022-10-05T11:58:22.114Z,20.80
2022-10-05T12:00:57.989Z,20.80
2022-10-05T12:03:51.043Z,20.70
2022-10-05T12:06:39.440Z,20.70
2022-10-05T12:09:26.743Z,20.70
2022-10-05T12:12:16.477Z,20.60
2022-10-05T12:14:56.939Z,20.60
2022-10-05T12:17:27.364Z,20.60
2022-10-05T12:20:16.284Z,20.60
2022-10-05T12:23:02.321Z,20.70
2022-10-05T12:25:50.459Z,20.70
2022-10-05T12:28:23.612Z,20.80
2022-10-05T12:31:07.775Z,20.80
2022-10-05T12:33:56.306Z,20.90
2022-10-05T12:36:36.051Z,20.90
2022-10-05T12:39:42.150Z,20.90
2022-10-05T12:42:41.752Z,20.90
2022-10-05T12:45:43.613Z,20.80
2022-10-05T12:48:32.304Z,20.70
2022-10-05T12:51:14.734Z,20.60
2022-10-05T12:53:57.000Z,20.40
2022-10-05T12:56:48.066Z,20.30
2022-10-05T12:59:27.505Z,20.20
2022-10-05T13:02:30.926Z,20.00
2022-10-05T13:05:10.708Z,19.90
2022-10-05T13:08:00.187Z,19.70
2022-10-05T13:10:36.637Z,19.60
2022-10-05T13:13:36.370Z,19.50
2022-10-05T13:16:31.288Z,19.40
2022-10-05T13:19:04.754Z,19.30
2022-10-05T13:21:52.074Z,19.20
2022-10-05T13:24:29.769Z,19.10
2022-10-05T13:27:14.223Z,19.10
2022-10-05T13:29:54.320Z,19.10
2022-10-05T13:32:39.215Z,19.10
2022-10-05T13:35:56.151Z,19.10
2022-10-05T13:38:56.933Z,19.10
2022-10-05T13:41:50.050Z,19.10
2022-10-05T13:44:38.573Z,19.10
2022-10-05T13:47:11.973Z,19.10
2022-10-05T13:49:49.537Z,19.10
2022-10-05T13:52:44.563Z,19.00
2022-10-05T13:55:35.088Z,19.10
2022-10-05T13:58:05.946Z,19.10
2022-10-05T14:00:43.765Z,19.00
2022-10-05T14:03:24.831Z,19.00
2022-10-05T14:05:57.452Z,19.00
2022-10-05T14:08:32.861Z,18.90
2022-10-05T14:11:19.763Z,18.90
2022-10-05T14:13:48.987Z,18.90
2022-10-05T14:16:26.231Z,18.80
2022-10-05T14:19:04.775Z,18.80
2022-10-05T14:21:43.975Z,18.70
2022-10-05T14:24:43.771Z,18.70
2022-10-05T14:27:27.040Z,18.60
2022-10-05T14:30:20.275Z,18.60
2022-10-05T14:33:05.914Z,18.50
2022-10-05T14:35:51.891Z,18.50
2022-10-05T14:38:21.459Z,18.50
2022-10-05T14:41:07.739Z,18.50
2022-10-05T14:43:35.618Z,18.40
2022-10-05T14:46:25.415Z,18.40
2022-10-05T14:49:14.353Z,18.40
2022-10-05T14:51:42.813Z,18.40
2022-10-05T14:54:30.361Z,18.30
2022-10-05T14:57:15.346Z,18.30
2022-10-05T14:59:46.864Z,18.30
2022-10-05T15:02:52.473Z,18.20
2022-10-05T15:05:53.634Z,18.20
2022-10-05T15:08:30.306Z,18.20
2022-10-05T15:11:03.263Z,18.20
2022-10-05T15:13:41.546Z,18.20
2022-10-05T15:16:31.021Z,18.20
2022-10-05T15:19:07.365Z,18.20
2022-10-05T15:22:02.689Z,18.10
2022-10-05T15:24:43.626Z,18.10
2022-10-05T15:27:54.017Z,18.10
2022-10-05T15:30:22.261Z,18.10
2022-10-05T15:33:08.933Z,18.00
2022-10-05T15:35:45.646Z,18.00
2022-10-05T15:38:21.946Z,17.90
2022-10-05T15:41:02.561Z,17.90
2022-10-05T15:43:47.391Z,17.90
2022-10-05T15:46:41.422Z,17.90
2022-10-05T15:49:23.762Z,17.80
2022-10-05T15:52:01.836Z,17.80
2022-10-05T15:55:01.107Z,17.80
2022-10-05T15:57:41.645Z,17.80
2022-10-05T16:00:13.746Z,17.70
2022-10-05T16:03:08.693Z,17.70
2022-10-05T16:06:12.840Z,17.70
2022-10-05T16:09:21.556Z,17.60
2022-10-05T16:12:09.620Z,17.50
2022-10-05T16:14:54.492Z,17.50
2022-10-05T16:17:29.828Z,17.40
2022-10-05T16:20:09.044Z,17.40
2022-10-05T16:23:13.834Z,17.40
2022-10-05T16:25:59.197Z,17.30
2022-10-05T16:28:47.420Z,17.30
2022-10-05T16:31:37.167Z,17.20
2022-10-05T16:34:33.341Z,17.20
2022-10-05T16:37:20.426Z,17.20
2022-10-05T16:40:23.163Z,17.10
2022-10-05T16:43:33.778Z,17.00
2022-10-05T16:46:10.587Z,17.00
2022-10-05T16:49:07.483Z,17.00
2022-10-05T16:51:56.261Z,16.90
2022-10-05T16:54:37.213Z,16.90
2022-10-05T16:57:23.595Z,16.90
2022-10-05T17:00:08.906Z,16.90
2022-10-05T17:02:46.017Z,16.80
2022-10-05T17:05:34.890Z,16.80
2022-10-05T17:08:31.686Z,16.70
2022-10-05T17:11:05.400Z,16.70
2022-10-05T17:14:06.641Z,16.60
2022-10-05T17:16:54.482Z,16.60
2022-10-05T17:19:56.062Z,16.60
2022-10-05T17:22:34.425Z,16.50
2022-10-05T17:25:11.620Z,16.40
2022-10-05T17:28:15.014Z,16.40
2022-10-05T17:30:54.461Z,16.30
2022-10-05T17:33:31.672Z,16.30
2022-10-05T17:36:08.367Z,16.30
2022-10-05T17:38:52.887Z,16.20
2022-10-05T17:41:30.248Z,16.20
2022-10-05T17:44:20.991Z,16.20
2022-10-05T17:46:59.068Z,16.20
2022-10-05T17:49:44.060Z,16.10
2022-10-05T17:52:40.131Z,16.00
2022-10-05T17:55:44.087Z,16.00
2022-10-05T17:58:54.734Z,16.00
2022-10-05T18:01:37.120Z,15.90
2022-10-05T18:04:13.515Z,15.90
2022-10-05T18:06:48.121Z,15.80
2022-10-05T18:09:20.902Z,15.80
2022-10-05T18:12:09.313Z,15.80
2022-10-05T18:15:00.052Z,15.80
2022-10-05T18:17:36.914Z,15.70
2022-10-05T18:20:15.201Z,15.70
2022-10-05T18:22:46.261Z,15.60
2022-10-05T18:25:38.245Z,15.60
2022-10-05T18:28:39.088Z,15.60
2022-10-05T18:31:29.881Z,15.50
2022-10-05T18:33:57.385Z,15.50
2022-10-05T18:36:39.083Z,15.50
2022-10-05T18:39:35.862Z,15.50
2022-10-05T18:42:36.038Z,15.40
2022-10-05T18:45:17.268Z,15.40
2022-10-05T18:47:48.133Z,15.30
2022-10-05T18:50:32.309Z,15.30
2022-10-05T18:53:27.162Z,15.30
2022-10-05T18:56:32.159Z,15.30
2022-10-05T18:59:44.598Z,15.20
2022-10-05T19:02:34.760Z,15.20
2022-10-05T19:05:45.783Z,15.20
2022-10-05T19:08:14.346Z,15.20
2022-10-05T19:10:52.900Z,15.10
2022-10-05T19:13:39.065Z,15.10
2022-10-05T19:16:28.513Z,15.10
2022-10-05T19:19:09.731Z,15.10
2022-10-05T19:21:59.037Z,15.10
2022-10-05T19:25:01.871Z,15.10
2022-10-05T19:27:55.065Z,15.10
2022-10-05T19:30:45.425Z,15.10
2022-10-05T19:33:48.264Z,15.00
2022-10-05T19:36:18.694Z,15.00
2022-10-05T19:39:16.939Z,15.10
2022-10-05T19:41:53.411Z,15.10
2022-10-05T19:44:50.410Z,15.00
2022-10-05T19:47:24.101Z,15.00
2022-10-05T19:49:55.350Z,15.00
2022-10-05T19:52:28.454Z,15.00
2022-10-05T19:55:24.355Z,15.00
2022-10-05T19:57:54.559Z,15.00
2022-10-05T20:00:27.024Z,14.90
2022-10-05T20:03:27.815Z,14.90
2022-10-05T20:06:06.770Z,14.90
2022-10-05T20:08:46.784Z,14.80
2022-10-05T20:11:22.915Z,14.80
2022-10-05T20:13:54.943Z,14.80
2022-10-05T20:19:49.673Z,14.70
2022-10-05T20:22:23.036Z,14.70
2022-10-05T20:24:52.384Z,14.70
2022-10-05T20:27:51.100Z,14.60
2022-10-05T20:30:24.802Z,14.60
2022-10-05T20:32:58.107Z,14.60
2022-10-05T20:35:30.412Z,14.50
2022-10-05T20:38:00.214Z,14.50
2022-10-05T20:40:30.122Z,14.50
2022-10-05T20:42:58.920Z,14.50
2022-10-05T20:45:26.594Z,14.50
2022-10-05T20:47:54.133Z,14.40
2022-10-05T20:50:22.515Z,14.40
2022-10-05T20:52:50.160Z,14.40
2022-10-05T20:55:17.888Z,14.30
2022-10-05T20:57:46.155Z,14.40
2022-10-05T21:00:14.098Z,14.40
2022-10-05T21:02:41.827Z,14.40
2022-10-05T21:05:09.780Z,14.30
2022-10-05T21:07:37.418Z,14.30
2022-10-05T21:10:05.464Z,14.30
2022-10-05T21:12:42.097Z,14.30
2022-10-05T21:15:10.365Z,14.30
2022-10-05T21:17:38.812Z,14.30
2022-10-05T21:20:06.511Z,14.20
2022-10-05T21:22:36.411Z,14.20
2022-10-05T21:25:04.409Z,14.20
2022-10-05T21:27:32.695Z,14.20
2022-10-05T21:30:00.780Z,14.20
2022-10-05T21:32:28.389Z,14.20
2022-10-05T21:34:57.258Z,14.20
2022-10-05T21:37:24.852Z,14.20
2022-10-05T21:39:52.328Z,14.10
2022-10-05T21:42:19.789Z,14.10
2022-10-05T21:44:47.374Z,14.10
2022-10-05T21:47:15.077Z,14.10
2022-10-05T21:49:42.815Z,14.10
2022-10-05T21:52:10.609Z,14.10
2022-10-05T21:54:38.456Z,14.10
2022-10-05T21:57:06.546Z,14.10
2022-10-05T21:59:35.122Z,14.00
2022-10-05T22:02:03.517Z,14.00
2022-10-05T22:04:31.047Z,14.00
2022-10-05T22:06:58.684Z,14.00
2022-10-05T22:09:26.261Z,14.00
2022-10-05T22:11:54.825Z,14.00
2022-10-05T22:14:22.515Z,14.00
2022-10-05T22:16:50.231Z,14.00
2022-10-05T22:19:19.958Z,14.00
2022-10-05T22:21:47.678Z,14.00
2022-10-05T22:24:15.111Z,13.90
2022-10-05T22:26:46.317Z,13.90
2022-10-05T22:29:16.272Z,13.90
2022-10-05T22:31:46.298Z,13.90
2022-10-05T22:34:14.089Z,13.90
2022-10-05T22:36:41.881Z,13.80
2022-10-05T22:39:09.425Z,13.80
2022-10-05T22:41:36.906Z,13.80
2022-10-05T22:44:04.531Z,13.80
2022-10-05T22:46:32.573Z,13.80
2022-10-05T22:49:00.243Z,13.80
2022-10-05T22:51:28.602Z,13.80
2022-10-05T22:53:56.074Z,13.80
2022-10-05T22:56:24.093Z,13.80
2022-10-05T22:58:51.959Z,13.80
2022-10-05T23:01:20.214Z,13.80
2022-10-05T23:03:47.773Z,13.70
2022-10-05T23:06:18.621Z,13.70
2022-10-05T23:08:46.998Z,13.70
2022-10-05T23:11:17.594Z,13.70
2022-10-05T23:13:45.320Z,13.70
2022-10-05T23:16:18.946Z,13.60
2022-10-05T23:18:51.538Z,13.70
2022-10-05T23:21:21.013Z,13.60
2022-10-05T23:23:51.149Z,13.60
2022-10-05T23:26:23.605Z,13.60
2022-10-05T23:28:51.671Z,13.60
2022-10-05T23:31:22.194Z,13.60
2022-10-05T23:33:50.128Z,13.50
2022-10-05T23:36:20.161Z,13.50
2022-10-05T23:38:48.242Z,13.50
2022-10-05T23:41:17.016Z,13.50
2022-10-05T23:43:44.654Z,13.50
2022-10-05T23:46:13.375Z,13.50
2022-10-05T23:48:41.061Z,13.40
2022-10-05T23:51:13.638Z,13.40
2022-10-05T23:53:41.226Z,13.40
2022-10-05T23:56:08.798Z,13.40
2022-10-05T23:58:36.426Z,13.40
